Time;durP1;ratioP1;P1;durP2;ratioP2;P2;SDS_P1;SDS_P2;PMS_P1;PMS_P2;Temp;Humidity;BMP_temperature;BMP_pressure;BME280_temperature;BME280_humidity;BME280_pressure;Samples;Min_cycle;Max_cycle;Signal;HPM_P1;HPM_P2
2022/05/24 00:02:21;;;;;;;35.30;24.87;;;;;;;;;;5073124;28;20506;-51
2022/05/24 00:04:47;;;;;;;33.27;24.40;;;;;;;;;;5070659;28;20463;-51
2022/05/24 00:07:13;;;;;;;32.60;24.00;;;;;;;;;;5053775;28;20828;-50
2022/05/24 00:09:39;;;;;;;42.50;23.00;;;;;;;;;;5054309;28;20769;-51
2022/05/24 00:12:05;;;;;;;36.43;23.57;;;;;;;;;;5073022;28;20767;-51
2022/05/24 00:17:16;;;;;;;38.83;22.40;;;;;;;;;;5053962;28;20426;-50
2022/05/24 00:19:43;;;;;;;35.03;24.90;;;;;;;;;;5054190;28;20407;-51
2022/05/24 00:22:09;;;;;;;33.70;22.43;;;;;;;;;;5072600;28;20901;-52
2022/05/24 00:24:35;;;;;;;29.03;21.47;;;;;;;;;;5072691;28;20475;-51
2022/05/24 00:27:01;;;;;;;34.97;23.17;;;;;;;;;;5053321;28;20430;-52
2022/05/24 00:29:27;;;;;;;31.43;22.37;;;;;;;;;;5053153;28;20398;-52
2022/05/24 00:31:53;;;;;;;35.10;23.10;;;;;;;;;;5071497;28;20384;-52
2022/05/24 00:34:19;;;;;;;31.53;20.67;;;;;;;;;;5073043;28;20499;-52
2022/05/24 00:36:45;;;;;;;34.57;21.70;;;;;;;;;;5054908;28;20423;-51
2022/05/24 00:39:11;;;;;;;32.73;20.23;;;;;;;;;;5053069;28;20538;-51
2022/05/24 00:41:39;;;;;;;26.73;19.23;;;;;;;;;;5068510;28;20398;-52
2022/05/24 00:44:09;;;;;;;32.03;21.80;;;;;;;;;;5072814;28;20392;-52
2022/05/24 00:46:49;;;;;;;30.17;20.90;;;;;;;;;;5057224;28;20476;-52
2022/05/24 00:49:21;;;;;;;29.80;18.43;;;;;;;;;;5052915;28;20928;-51
2022/05/24 00:51:49;;;;;;;30.57;19.33;;;;;;;;;;5064439;28;20485;-52
2022/05/24 00:54:16;;;;;;;26.63;18.20;;;;;;;;;;5052634;28;20436;-51
2022/05/24 00:56:42;;;;;;;24.90;18.23;;;;;;;;;;5052741;28;20492;-50
2022/05/24 00:59:09;;;;;;;26.07;17.50;;;;;;;;;;5052713;28;20512;-51
2022/05/24 01:01:39;;;;;;;25.20;18.20;;;;;;;;;;5053125;28;20412;-52
2022/05/24 01:04:06;;;;;;;26.77;17.47;;;;;;;;;;5051785;28;20487;-51
2022/05/24 01:06:32;;;;;;;27.17;18.43;;;;;;;;;;5064332;28;20398;-51
2022/05/24 01:08:59;;;;;;;24.60;18.30;;;;;;;;;;5072401;28;20398;-52
2022/05/24 01:11:26;;;;;;;23.20;15.57;;;;;;;;;;5060400;28;20428;-50
2022/05/24 01:13:54;;;;;;;29.87;16.97;;;;;;;;;;5052408;28;20458;-50
2022/05/24 01:16:20;;;;;;;20.03;14.60;;;;;;;;;;5061911;28;20485;-50
2022/05/24 01:18:46;;;;;;;20.67;15.53;;;;;;;;;;5072429;28;20381;-51
2022/05/24 01:21:13;;;;;;;20.43;15.93;;;;;;;;;;5062805;28;20421;-51
2022/05/24 01:23:40;;;;;;;18.53;15.23;;;;;;;;;;5052365;28;20484;-51
2022/05/24 01:26:10;;;;;;;33.70;18.00;;;;;;;;;;5059506;28;20458;-50
2022/05/24 01:28:39;;;;;;;19.73;15.73;;;;;;;;;;5070622;28;20406;-50
2022/05/24 01:31:05;;;;;;;27.17;17.17;;;;;;;;;;5064716;28;20397;-50
2022/05/24 01:36:17;;;;;;;22.63;15.80;;;;;;;;;;5060390;28;20527;-50
2022/05/24 01:38:54;;;;;;;22.60;16.00;;;;;;;;;;5072146;28;20403;-52
2022/05/24 01:41:21;;;;;;;23.23;15.87;;;;;;;;;;5062924;28;20903;-50
2022/05/24 01:43:51;;;;;;;24.20;16.07;;;;;;;;;;5052067;28;20409;-50
2022/05/24 01:46:19;;;;;;;40.93;9.60;;;;;;;;;;5056860;28;20819;-52
2022/05/24 01:48:48;;;;;;;37.83;34.23;;;;;;;;;;5071936;28;20415;-50
2022/05/24 01:51:15;;;;;;;25.83;17.37;;;;;;;;;;5065015;28;20414;-50
2022/05/24 01:53:44;;;;;;;22.53;16.60;;;;;;;;;;5053330;28;20414;-50
2022/05/24 01:56:14;;;;;;;24.93;17.40;;;;;;;;;;5071826;28;20430;-50
2022/05/24 01:58:41;;;;;;;28.70;17.77;;;;;;;;;;5058870;28;20438;-52
2022/05/24 02:01:25;;;;;;;25.63;16.83;;;;;;;;;;5051181;28;20477;-50
2022/05/24 02:03:51;;;;;;;30.03;19.63;;;;;;;;;;5053563;28;20391;-50
2022/05/24 02:06:19;;;;;;;24.33;18.77;;;;;;;;;;5052589;28;20898;-51
2022/05/24 02:08:45;;;;;;;24.23;18.53;;;;;;;;;;5071790;28;20410;-52
2022/05/24 02:11:11;;;;;;;28.53;19.00;;;;;;;;;;5070781;28;20406;-50
2022/05/24 02:13:39;;;;;;;30.80;21.70;;;;;;;;;;5055473;28;20411;-50
2022/05/24 02:16:07;;;;;;;35.67;21.40;;;;;;;;;;5071685;28;20430;-50
2022/05/24 02:18:33;;;;;;;29.33;21.03;;;;;;;;;;5052361;28;20401;-50
2022/05/24 02:20:59;;;;;;;27.90;19.93;;;;;;;;;;5051015;28;20417;-50
2022/05/24 02:23:25;;;;;;;35.93;20.83;;;;;;;;;;5068813;28;20398;-50
2022/05/24 02:25:55;;;;;;;29.93;19.40;;;;;;;;;;5060714;28;20431;-50
2022/05/24 02:28:25;;;;;;;29.07;21.40;;;;;;;;;;5054682;28;20388;-51
2022/05/24 02:30:54;;;;;;;35.20;20.93;;;;;;;;;;5065600;28;20404;-50
2022/05/24 02:33:20;;;;;;;30.87;19.93;;;;;;;;;;5075556;28;20855;-50
2022/05/24 02:35:46;;;;;;;30.23;20.40;;;;;;;;;;5065599;28;20855;-50
2022/05/24 02:38:13;;;;;;;32.93;21.67;;;;;;;;;;5055562;28;20765;-49
2022/05/24 02:43:24;;;;;;;29.60;21.10;;;;;;;;;;5075719;28;20476;-51
2022/05/24 02:45:50;;;;;;;31.10;19.97;;;;;;;;;;5064946;28;20828;-51
2022/05/24 02:48:16;;;;;;;31.90;21.50;;;;;;;;;;5055226;28;20411;-51
2022/05/24 02:50:42;;;;;;;31.80;19.97;;;;;;;;;;5063289;28;20385;-52
2022/05/24 02:53:08;;;;;;;30.23;19.57;;;;;;;;;;5074529;28;20431;-50
2022/05/24 02:55:34;;;;;;;28.80;19.90;;;;;;;;;;5067022;28;20917;-51
2022/05/24 02:58:00;;;;;;;25.33;18.80;;;;;;;;;;5055130;28;20945;-50
2022/05/24 03:00:26;;;;;;;36.50;20.13;;;;;;;;;;5060678;28;20457;-51
2022/05/24 03:02:53;;;;;;;35.03;20.30;;;;;;;;;;5074477;28;20431;-50
2022/05/24 03:05:19;;;;;;;30.67;17.70;;;;;;;;;;5069080;28;20450;-52
2022/05/24 03:10:31;;;;;;;24.90;17.53;;;;;;;;;;5061269;28;20426;-50
2022/05/24 03:15:43;;;;;;;27.40;16.93;;;;;;;;;;5066147;28;20468;-50
2022/05/24 03:18:11;;;;;;;26.60;17.00;;;;;;;;;;5054768;28;20433;-50
2022/05/24 03:20:37;;;;;;;26.13;16.40;;;;;;;;;;5068034;28;20419;-50
2022/05/24 03:23:03;;;;;;;25.57;15.93;;;;;;;;;;5074009;28;20454;-50
2022/05/24 03:25:31;;;;;;;26.20;16.47;;;;;;;;;;5072964;28;21012;-50
2022/05/24 03:27:57;;;;;;;24.40;16.03;;;;;;;;;;5074698;28;20755;-50
2022/05/24 03:30:23;;;;;;;22.97;14.60;;;;;;;;;;5063597;28;20417;-52
2022/05/24 03:32:52;;;;;;;25.67;16.07;;;;;;;;;;5053759;28;20400;-51
2022/05/24 03:35:18;;;;;;;26.43;16.27;;;;;;;;;;5054397;28;20447;-51
2022/05/24 03:37:44;;;;;;;20.07;14.70;;;;;;;;;;5054408;28;20399;-51
2022/05/24 03:40:11;;;;;;;26.90;15.87;;;;;;;;;;5063014;28;20421;-51
2022/05/24 03:42:37;;;;;;;23.77;16.50;;;;;;;;;;5060262;28;20398;-51
2022/05/24 03:45:04;;;;;;;22.23;16.20;;;;;;;;;;5062576;28;20455;-51
2022/05/24 03:47:30;;;;;;;20.23;15.40;;;;;;;;;;5068175;28;20396;-52
2022/05/24 03:49:56;;;;;;;24.30;15.17;;;;;;;;;;5059441;28;20416;-51
2022/05/24 03:52:22;;;;;;;32.40;15.30;;;;;;;;;;5071494;28;20977;-51
2022/05/24 03:54:48;;;;;;;23.90;14.67;;;;;;;;;;5067379;28;20453;-52
2022/05/24 03:59:59;;;;;;;17.37;11.93;;;;;;;;;;5053918;28;21047;-52
2022/05/24 04:02:25;;;;;;;21.00;11.30;;;;;;;;;;5055215;28;20394;-51
2022/05/24 04:04:51;;;;;;;11.80;10.33;;;;;;;;;;5073427;28;20559;-52
2022/05/24 04:07:17;;;;;;;15.90;8.93;;;;;;;;;;5072973;28;20526;-51
2022/05/24 04:09:43;;;;;;;12.07;8.70;;;;;;;;;;5053693;28;20418;-53
2022/05/24 04:12:09;;;;;;;15.83;9.30;;;;;;;;;;5053046;28;20435;-52
2022/05/24 04:14:35;;;;;;;12.30;8.40;;;;;;;;;;5073352;28;20442;-51
2022/05/24 04:17:01;;;;;;;8.83;7.93;;;;;;;;;;5071376;28;20421;-52
2022/05/24 04:19:27;;;;;;;11.90;8.20;;;;;;;;;;5053615;28;20411;-52
2022/05/24 04:21:53;;;;;;;11.50;8.67;;;;;;;;;;5054464;28;20381;-52
2022/05/24 04:24:20;;;;;;;18.23;8.57;;;;;;;;;;5072923;28;20430;-51
2022/05/24 04:26:46;;;;;;;15.00;7.87;;;;;;;;;;5053394;28;20456;-51
2022/05/24 04:29:12;;;;;;;11.70;8.40;;;;;;;;;;5053350;28;20854;-52
2022/05/24 04:31:38;;;;;;;10.70;7.60;;;;;;;;;;5069327;28;20392;-52
2022/05/24 04:34:04;;;;;;;15.13;8.67;;;;;;;;;;5073365;28;20437;-51
2022/05/24 04:36:31;;;;;;;17.73;8.30;;;;;;;;;;5056002;28;20514;-51
2022/05/24 04:38:57;;;;;;;13.97;8.23;;;;;;;;;;5053900;28;20414;-52
2022/05/24 04:44:08;;;;;;;9.27;8.10;;;;;;;;;;5070713;28;20913;-52
2022/05/24 04:49:20;;;;;;;10.33;7.93;;;;;;;;;;5069912;28;20457;-53
2022/05/24 04:51:46;;;;;;;16.03;8.30;;;;;;;;;;5052169;28;20404;-51
2022/05/24 04:54:12;;;;;;;18.50;7.47;;;;;;;;;;5053767;28;20414;-53
2022/05/24 04:56:38;;;;;;;15.50;7.47;;;;;;;;;;5064078;28;20416;-52
2022/05/24 04:59:04;;;;;;;8.50;6.80;;;;;;;;;;5052920;28;20486;-53
2022/05/24 05:01:30;;;;;;;10.20;6.83;;;;;;;;;;5052264;28;20429;-53
2022/05/24 05:03:56;;;;;;;11.23;6.37;;;;;;;;;;5052728;28;20895;-53
2022/05/24 05:06:22;;;;;;;8.43;6.50;;;;;;;;;;5066313;28;20424;-53
2022/05/24 05:08:48;;;;;;;9.43;5.77;;;;;;;;;;5052560;28;20440;-53
2022/05/24 05:11:14;;;;;;;10.43;6.17;;;;;;;;;;5052160;28;20497;-52
2022/05/24 05:13:41;;;;;;;7.63;5.20;;;;;;;;;;5052580;28;20404;-51
2022/05/24 05:16:07;;;;;;;14.23;6.57;;;;;;;;;;5059473;28;20920;-52
2022/05/24 05:18:33;;;;;;;9.27;6.57;;;;;;;;;;5067021;28;20420;-52
2022/05/24 05:20:59;;;;;;;9.03;6.00;;;;;;;;;;5069080;28;20425;-53
2022/05/24 05:23:25;;;;;;;19.17;5.80;;;;;;;;;;5072555;28;20391;-52
2022/05/24 05:25:51;;;;;;;16.90;5.87;;;;;;;;;;5072229;28;20551;-51
2022/05/24 05:28:19;;;;;;;6.43;4.60;;;;;;;;;;5072187;28;20415;-52
2022/05/24 05:33:30;;;;;;;7.10;5.00;;;;;;;;;;5069774;28;20418;-51
2022/05/24 05:35:56;;;;;;;13.57;4.97;;;;;;;;;;5052058;28;20810;-53
2022/05/24 05:38:22;;;;;;;11.73;5.60;;;;;;;;;;5051952;28;20405;-50
2022/05/24 05:40:52;;;;;;;5.63;5.03;;;;;;;;;;5051502;28;20433;-50
2022/05/24 05:43:18;;;;;;;8.27;4.90;;;;;;;;;;5052122;28;20394;-52
2022/05/24 05:45:51;;;;;;;7.80;4.40;;;;;;;;;;5071125;28;20523;-50
2022/05/24 05:48:17;;;;;;;5.60;4.67;;;;;;;;;;5061612;28;21151;-51
2022/05/24 05:50:44;;;;;;;8.07;5.10;;;;;;;;;;5051792;28;20422;-51
2022/05/24 05:53:09;;;;;;;8.33;4.83;;;;;;;;;;5060072;28;20417;-51
2022/05/24 05:55:38;;;;;;;7.50;4.53;;;;;;;;;;5071811;28;20430;-52
2022/05/24 05:58:05;;;;;;;7.97;5.07;;;;;;;;;;5052136;28;20416;-50
2022/05/24 06:00:31;;;;;;;14.33;5.50;;;;;;;;;;5051646;28;20399;-51
2022/05/24 06:02:57;;;;;;;7.17;4.90;;;;;;;;;;5069166;28;20400;-50
2022/05/24 06:05:23;;;;;;;9.60;4.97;;;;;;;;;;5071794;28;20450;-50
2022/05/24 06:07:49;;;;;;;16.47;5.23;;;;;;;;;;5054173;28;20404;-51
2022/05/24 06:10:15;;;;;;;7.37;4.70;;;;;;;;;;5052321;28;20839;-53
2022/05/24 06:12:41;;;;;;;10.27;5.10;;;;;;;;;;5051104;28;20492;-51
2022/05/24 06:15:07;;;;;;;6.17;5.07;;;;;;;;;;5053507;28;20429;-50
2022/05/24 06:17:33;;;;;;;5.53;4.73;;;;;;;;;;5051664;28;20397;-50
2022/05/24 06:20:02;;;;;;;6.17;5.30;;;;;;;;;;5059100;28;20498;-50
2022/05/24 06:22:28;;;;;;;11.33;5.70;;;;;;;;;;5070587;28;20384;-49
2022/05/24 06:24:54;;;;;;;9.37;5.27;;;;;;;;;;5064628;28;20514;-51
2022/05/24 06:27:22;;;;;;;10.60;4.87;;;;;;;;;;5052499;28;20410;-51
2022/05/24 06:29:48;;;;;;;7.30;4.10;;;;;;;;;;5051223;28;20464;-50
2022/05/24 06:32:14;;;;;;;11.47;5.27;;;;;;;;;;5050871;28;20452;-52
2022/05/24 06:34:39;;;;;;;14.87;4.63;;;;;;;;;;5071047;28;20858;-50
2022/05/24 06:37:06;;;;;;;10.63;5.13;;;;;;;;;;5071596;28;20437;-50
2022/05/24 06:39:31;;;;;;;13.03;5.63;;;;;;;;;;5069551;28;20479;-51
2022/05/24 06:41:57;;;;;;;5.50;4.47;;;;;;;;;;5071144;28;20468;-51
2022/05/24 06:44:23;;;;;;;4.00;3.67;;;;;;;;;;5053398;28;20445;-52
2022/05/24 06:46:49;;;;;;;9.33;4.13;;;;;;;;;;5051095;28;20406;-51
2022/05/24 06:49:15;;;;;;;6.63;4.60;;;;;;;;;;5052180;28;20503;-52
2022/05/24 06:51:41;;;;;;;6.70;4.30;;;;;;;;;;5052596;28;20431;-51
2022/05/24 06:54:07;;;;;;;7.00;3.97;;;;;;;;;;5062227;28;20917;-51
2022/05/24 06:56:33;;;;;;;5.70;4.27;;;;;;;;;;5051358;28;20406;-51
2022/05/24 07:04:29;;;;;;;4.37;3.80;;;;;;;;;;5059064;28;20836;-52
2022/05/24 07:06:55;;;;;;;4.00;3.37;;;;;;;;;;5061728;28;20421;-52
2022/05/24 07:09:23;;;;;;;5.37;3.70;;;;;;;;;;5051003;28;20421;-52
2022/05/24 07:11:49;;;;;;;14.87;4.03;;;;;;;;;;5052488;28;20421;-52
2022/05/24 07:14:15;;;;;;;7.30;4.00;;;;;;;;;;5069629;28;20436;-53
2022/05/24 07:16:41;;;;;;;8.03;3.80;;;;;;;;;;5062370;28;20424;-53
2022/05/24 07:19:07;;;;;;;11.10;4.00;;;;;;;;;;5070548;28;20811;-52
2022/05/24 07:21:33;;;;;;;6.47;3.47;;;;;;;;;;5073692;28;20400;-52
2022/05/24 07:23:59;;;;;;;3.60;3.30;;;;;;;;;;5056420;28;20428;-52
2022/05/24 07:26:26;;;;;;;5.40;4.00;;;;;;;;;;5072853;28;20456;-52
2022/05/24 07:28:52;;;;;;;6.73;3.60;;;;;;;;;;5074251;28;20756;-51
2022/05/24 07:31:17;;;;;;;7.03;3.03;;;;;;;;;;5061357;28;20386;-52
2022/05/24 07:33:43;;;;;;;11.23;3.23;;;;;;;;;;5054155;28;20399;-52
2022/05/24 07:36:09;;;;;;;5.70;3.57;;;;;;;;;;5055055;28;20516;-51
2022/05/24 07:38:35;;;;;;;5.80;3.00;;;;;;;;;;5053922;28;20449;-53
2022/05/24 07:46:51;;;;;;;3.03;2.20;;;;;;;;;;5016035;28;20448;-50
2022/05/24 07:49:17;;;;;;;3.93;3.30;;;;;;;;;;5011720;28;20916;-51
2022/05/24 07:51:43;;;;;;;3.37;2.77;;;;;;;;;;5035894;28;20868;-51
2022/05/24 07:54:09;;;;;;;2.87;2.37;;;;;;;;;;5053985;28;20443;-50
2022/05/24 07:56:34;;;;;;;2.70;2.50;;;;;;;;;;5054968;28;20446;-50
2022/05/24 07:59:00;;;;;;;4.57;2.70;;;;;;;;;;5053762;28;20406;-50
2022/05/24 08:01:27;;;;;;;5.70;2.77;;;;;;;;;;5064862;28;20407;-52
2022/05/24 08:03:53;;;;;;;5.37;3.30;;;;;;;;;;5073563;28;20399;-50
2022/05/24 08:06:19;;;;;;;18.67;3.10;;;;;;;;;;5061933;28;20476;-50
2022/05/24 08:08:46;;;;;;;5.77;2.87;;;;;;;;;;5053637;28;20392;-51
2022/05/24 08:11:11;;;;;;;3.83;2.77;;;;;;;;;;5062857;28;20735;-50
2022/05/24 08:13:38;;;;;;;2.80;2.60;;;;;;;;;;5073505;28;20915;-52
2022/05/24 08:16:04;;;;;;;5.23;2.63;;;;;;;;;;5064060;28;20512;-53
2022/05/24 08:18:30;;;;;;;4.23;2.47;;;;;;;;;;5053479;28;20421;-52
2022/05/24 08:20:57;;;;;;;4.13;3.20;;;;;;;;;;5060250;28;20412;-51
2022/05/24 08:23:24;;;;;;;5.33;2.50;;;;;;;;;;5073611;28;20411;-51
2022/05/24 08:25:50;;;;;;;3.33;2.30;;;;;;;;;;5071422;28;20448;-51
2022/05/24 08:28:16;;;;;;;6.70;2.97;;;;;;;;;;5073395;28;20408;-53
2022/05/24 08:30:43;;;;;;;5.03;2.93;;;;;;;;;;5067640;28;20419;-51
2022/05/24 08:33:12;;;;;;;3.20;2.30;;;;;;;;;;5052857;28;20398;-52
2022/05/24 08:35:38;;;;;;;4.83;3.30;;;;;;;;;;5054344;28;20802;-52
2022/05/24 08:38:05;;;;;;;5.93;2.70;;;;;;;;;;5053241;28;20434;-52
2022/05/24 08:40:34;;;;;;;3.33;2.30;;;;;;;;;;5068679;28;20415;-54
2022/05/24 08:43:26;;;;;;;4.90;2.20;;;;;;;;;;5065142;28;20425;-52
2022/05/24 08:48:44;;;;;;;2.57;2.37;;;;;;;;;;5060995;28;20469;-52
2022/05/24 08:51:16;;;;;;;3.70;2.97;;;;;;;;;;5073164;28;20896;-55
2022/05/24 08:53:45;;;;;;;3.53;2.17;;;;;;;;;;5072047;28;21005;-54
2022/05/24 08:56:24;;;;;;;2.00;1.90;;;;;;;;;;5072620;28;20416;-55
2022/05/24 08:58:52;;;;;;;4.10;1.90;;;;;;;;;;5067386;28;20413;-53
2022/05/24 09:01:26;;;;;;;2.43;1.77;;;;;;;;;;5063999;28;20411;-55
2022/05/24 09:03:52;;;;;;;2.50;2.00;;;;;;;;;;5072315;28;20433;-54
2022/05/24 09:06:36;;;;;;;3.60;1.97;;;;;;;;;;5072377;28;20859;-55
2022/05/24 09:09:02;;;;;;;5.23;2.30;;;;;;;;;;5066880;28;20416;-54
2022/05/24 09:11:36;;;;;;;6.37;1.93;;;;;;;;;;5069856;28;20486;-53
2022/05/24 09:14:04;;;;;;;2.57;1.80;;;;;;;;;;5068651;28;20781;-54
2022/05/24 09:16:47;;;;;;;3.40;1.97;;;;;;;;;;5057834;28;20435;-54
2022/05/24 09:19:20;;;;;;;6.30;2.10;;;;;;;;;;5060649;28;20506;-54
2022/05/24 09:21:51;;;;;;;3.00;1.83;;;;;;;;;;5071638;28;20396;-53
2022/05/24 09:24:20;;;;;;;2.37;2.07;;;;;;;;;;5070576;28;20443;-53
2022/05/24 09:27:05;;;;;;;4.10;2.53;;;;;;;;;;5066042;28;20439;-54
2022/05/24 09:29:35;;;;;;;3.90;2.30;;;;;;;;;;5059775;28;20472;-54
2022/05/24 09:32:05;;;;;;;6.37;2.40;;;;;;;;;;5060794;28;20400;-52
2022/05/24 09:34:33;;;;;;;4.97;2.30;;;;;;;;;;5058288;28;20478;-54
2022/05/24 09:37:18;;;;;;;6.87;2.90;;;;;;;;;;5064792;28;20412;-54
2022/05/24 09:39:56;;;;;;;4.17;2.43;;;;;;;;;;5075932;28;20387;-52
2022/05/24 09:42:30;;;;;;;2.63;2.20;;;;;;;;;;5070681;28;20786;-52
2022/05/24 09:44:59;;;;;;;8.30;2.63;;;;;;;;;;5071805;28;21025;-52
2022/05/24 09:47:33;;;;;;;3.30;2.10;;;;;;;;;;5067764;28;20423;-54
2022/05/24 09:50:29;;;;;;;12.07;2.70;;;;;;;;;;5063045;28;20734;-55
2022/05/24 09:53:14;;;;;;;5.03;2.10;;;;;;;;;;5042704;28;20440;-55
2022/05/24 09:55:40;;;;;;;5.30;1.87;;;;;;;;;;5064914;28;20518;-55
2022/05/24 09:58:20;;;;;;;3.43;1.87;;;;;;;;;;5071486;28;20432;-55
2022/05/24 10:00:51;;;;;;;7.03;1.70;;;;;;;;;;5057951;28;20419;-55
2022/05/24 10:03:20;;;;;;;1.87;1.40;;;;;;;;;;5051737;28;20401;-55
2022/05/24 10:05:53;;;;;;;2.20;1.50;;;;;;;;;;5052515;28;20964;-54
2022/05/24 10:08:19;;;;;;;6.93;1.77;;;;;;;;;;5052762;28;20425;-54
2022/05/24 10:10:47;;;;;;;3.40;1.80;;;;;;;;;;5068227;28;20457;-55
2022/05/24 10:13:39;;;;;;;3.50;2.03;;;;;;;;;;5057343;28;20430;-55
2022/05/24 10:16:21;;;;;;;3.63;2.17;;;;;;;;;;5085771;28;20466;-54
2022/05/24 10:18:57;;;;;;;4.43;1.70;;;;;;;;;;5075200;28;20474;-54
2022/05/24 10:21:26;;;;;;;3.13;2.10;;;;;;;;;;5070394;28;20429;-53
2022/05/24 10:23:55;;;;;;;2.50;2.17;;;;;;;;;;5059485;28;20419;-54
2022/05/24 10:26:39;;;;;;;6.17;2.10;;;;;;;;;;5052580;28;20813;-53
2022/05/24 10:29:09;;;;;;;4.80;2.47;;;;;;;;;;5051525;28;20401;-54
2022/05/24 10:31:35;;;;;;;3.03;1.80;;;;;;;;;;5069463;28;20419;-53
2022/05/24 10:40:17;;;;;;;6.63;1.63;;;;;;;;;;5043697;28;20411;-52
2022/05/24 10:43:08;;;;;;;3.13;1.53;;;;;;;;;;5058150;28;20418;-53
2022/05/24 10:45:50;;;;;;;2.87;1.93;;;;;;;;;;5056620;28;20520;-53
2022/05/24 10:48:21;;;;;;;5.37;2.13;;;;;;;;;;5063704;28;20456;-55
2022/05/24 10:50:52;;;;;;;1.87;1.47;;;;;;;;;;5069514;28;20411;-53
2022/05/24 10:53:21;;;;;;;4.97;1.80;;;;;;;;;;5066754;28;20524;-52
2022/05/24 10:55:50;;;;;;;1.77;1.67;;;;;;;;;;5068027;28;20466;-54
2022/05/24 10:58:18;;;;;;;2.77;1.67;;;;;;;;;;5072085;28;20422;-53
2022/05/24 11:00:46;;;;;;;2.30;1.53;;;;;;;;;;5061060;28;20959;-52
2022/05/24 11:03:41;;;;;;;2.00;1.43;;;;;;;;;;5065322;28;20418;-54
2022/05/24 11:06:25;;;;;;;6.27;2.10;;;;;;;;;;5048358;28;20890;-52
2022/05/24 11:08:54;;;;;;;4.90;1.50;;;;;;;;;;5054960;28;20838;-53
2022/05/24 11:11:39;;;;;;;3.40;1.40;;;;;;;;;;5054001;28;20954;-54
2022/05/24 11:14:11;;;;;;;3.20;1.40;;;;;;;;;;5063759;28;20418;-53
2022/05/24 11:16:40;;;;;;;3.10;1.63;;;;;;;;;;5072963;28;20411;-53
2022/05/24 11:19:22;;;;;;;2.30;1.60;;;;;;;;;;5074276;28;20822;-55
2022/05/24 11:22:07;;;;;;;2.00;1.90;;;;;;;;;;5065787;28;20435;-53
2022/05/24 11:24:33;;;;;;;2.17;1.80;;;;;;;;;;5073943;28;20432;-53
2022/05/24 11:27:00;;;;;;;3.00;2.37;;;;;;;;;;5077627;28;20410;-54
2022/05/24 11:29:31;;;;;;;1.60;1.33;;;;;;;;;;5077341;28;20856;-54
2022/05/24 11:32:01;;;;;;;3.77;1.60;;;;;;;;;;5073266;28;20419;-56
2022/05/24 11:34:30;;;;;;;6.50;2.00;;;;;;;;;;5083189;28;20973;-56
2022/05/24 11:37:22;;;;;;;2.93;1.70;;;;;;;;;;5056061;28;20421;-56
2022/05/24 11:39:48;;;;;;;1.83;1.70;;;;;;;;;;5030836;28;20775;-56
2022/05/24 11:42:22;;;;;;;3.53;1.80;;;;;;;;;;5053425;28;20422;-56
2022/05/24 11:44:50;;;;;;;3.67;2.00;;;;;;;;;;5054014;28;20531;-55
2022/05/24 11:47:34;;;;;;;1.87;1.77;;;;;;;;;;5074002;28;20447;-56
2022/05/24 11:50:01;;;;;;;3.07;2.20;;;;;;;;;;5072109;28;20465;-55
2022/05/24 11:52:44;;;;;;;5.40;2.10;;;;;;;;;;5064460;28;20420;-56
2022/05/24 11:55:11;;;;;;;4.00;2.10;;;;;;;;;;5053394;28;20432;-56
2022/05/24 11:57:39;;;;;;;2.33;2.13;;;;;;;;;;5064982;28;20424;-56
2022/05/24 12:00:05;;;;;;;4.13;2.03;;;;;;;;;;5071599;28;20768;-56
2022/05/24 12:07:54;;;;;;;3.30;2.00;;;;;;;;;;5055362;28;20403;-56
2022/05/24 12:08:31;;;;;;;3.40;1.80;;;;;;;;;;5059500;28;21142;-57
2022/05/24 12:11:03;;;;;;;3.00;1.70;;;;;;;;;;5073106;28;20395;-56
2022/05/24 12:13:31;;;;;;;1.70;1.60;;;;;;;;;;5062546;28;20508;-56
2022/05/24 12:15:58;;;;;;;1.83;1.60;;;;;;;;;;5062877;28;20443;-55
2022/05/24 12:18:35;;;;;;;3.03;1.63;;;;;;;;;;5056212;28;20444;-55
2022/05/24 12:21:01;;;;;;;5.57;1.87;;;;;;;;;;5058840;28;20431;-56
2022/05/24 12:23:30;;;;;;;2.60;2.10;;;;;;;;;;5074355;28;20412;-56
2022/05/24 12:26:13;;;;;;;3.97;1.63;;;;;;;;;;5073215;28;20466;-56
2022/05/24 12:28:39;;;;;;;2.63;1.80;;;;;;;;;;5070169;28;20965;-57
2022/05/24 12:31:08;;;;;;;2.47;1.50;;;;;;;;;;5072566;28;20416;-57
2022/05/24 12:33:35;;;;;;;6.20;1.60;;;;;;;;;;5070842;28;20412;-56
2022/05/24 12:36:01;;;;;;;2.23;1.53;;;;;;;;;;5053342;28;21013;-56
2022/05/24 12:38:28;;;;;;;2.80;1.40;;;;;;;;;;5061297;28;20504;-56
2022/05/24 12:41:13;;;;;;;2.40;1.60;;;;;;;;;;5072799;28;20470;-56
2022/05/24 12:43:48;;;;;;;9.70;1.80;;;;;;;;;;5071451;28;20412;-57
2022/05/24 12:46:15;;;;;;;1.83;1.43;;;;;;;;;;5072982;28;20458;-57
2022/05/24 12:48:41;;;;;;;3.20;1.47;;;;;;;;;;5063955;28;20414;-56
2022/05/24 12:51:08;;;;;;;3.37;1.30;;;;;;;;;;5052246;28;21001;-56
2022/05/24 12:53:35;;;;;;;2.27;1.50;;;;;;;;;;5053826;28;20526;-56
2022/05/24 12:56:03;;;;;;;4.50;1.57;;;;;;;;;;5052886;28;20432;-57
2022/05/24 12:58:40;;;;;;;2.70;1.20;;;;;;;;;;5059726;28;20464;-53
2022/05/24 13:01:07;;;;;;;2.57;1.53;;;;;;;;;;5067197;28;20454;-57
2022/05/24 13:03:33;;;;;;;4.80;1.43;;;;;;;;;;5065040;28;20460;-55
2022/05/24 13:05:59;;;;;;;1.87;1.20;;;;;;;;;;5071400;28;20529;-57
2022/05/24 13:08:25;;;;;;;3.67;1.53;;;;;;;;;;5073071;28;20825;-57
2022/05/24 13:10:52;;;;;;;3.43;1.40;;;;;;;;;;5066106;28;20410;-56
2022/05/24 13:13:21;;;;;;;2.17;1.70;;;;;;;;;;5051823;28;20402;-56
2022/05/24 13:15:50;;;;;;;1.40;1.27;;;;;;;;;;5055529;28;20944;-56
2022/05/24 13:18:18;;;;;;;2.07;1.87;;;;;;;;;;5071292;28;20767;-55
2022/05/24 13:20:44;;;;;;;2.20;1.50;;;;;;;;;;5067025;28;20530;-54
2022/05/24 13:23:15;;;;;;;1.50;1.40;;;;;;;;;;5062749;28;20473;-52
2022/05/24 13:25:53;;;;;;;4.67;1.93;;;;;;;;;;5054799;28;20488;-53
2022/05/24 13:28:32;;;;;;;1.83;1.50;;;;;;;;;;5072275;28;20408;-51
2022/05/24 13:33:44;;;;;;;1.33;1.23;;;;;;;;;;5052654;28;20396;-52
2022/05/24 13:36:13;;;;;;;1.97;1.80;;;;;;;;;;5059580;28;20768;-53
2022/05/24 13:38:40;;;;;;;2.50;1.30;;;;;;;;;;5070007;28;20412;-52
2022/05/24 13:41:07;;;;;;;2.30;1.30;;;;;;;;;;5071411;28;20375;-54
2022/05/24 13:43:38;;;;;;;4.30;1.40;;;;;;;;;;5066359;28;20501;-52
2022/05/24 13:46:12;;;;;;;1.30;1.20;;;;;;;;;;5051889;28;20455;-55
2022/05/24 13:48:52;;;;;;;1.73;1.10;;;;;;;;;;5057352;28;20787;-56
2022/05/24 13:51:19;;;;;;;5.53;1.50;;;;;;;;;;5071320;28;20435;-56
2022/05/24 13:53:46;;;;;;;4.77;1.23;;;;;;;;;;5063855;28;20977;-56
2022/05/24 13:56:23;;;;;;;2.80;1.10;;;;;;;;;;5051941;28;20433;-54
2022/05/24 13:58:53;;;;;;;2.73;1.10;;;;;;;;;;5052980;28;20483;-54
2022/05/24 14:01:36;;;;;;;4.90;1.17;;;;;;;;;;5059968;28;20440;-54
2022/05/24 14:04:11;;;;;;;2.13;1.60;;;;;;;;;;5071629;28;20441;-55
2022/05/24 14:06:39;;;;;;;1.77;1.10;;;;;;;;;;5061332;28;20515;-54
2022/05/24 14:09:05;;;;;;;1.93;1.10;;;;;;;;;;5053012;28;20503;-52
2022/05/24 14:11:32;;;;;;;2.90;1.30;;;;;;;;;;5057147;28;20921;-54
2022/05/24 14:13:59;;;;;;;1.10;1.00;;;;;;;;;;5058359;28;20531;-53
2022/05/24 14:16:26;;;;;;;1.50;1.30;;;;;;;;;;5071431;28;20489;-55
2022/05/24 14:18:53;;;;;;;4.90;1.10;;;;;;;;;;5070066;28;20418;-54
2022/05/24 14:21:21;;;;;;;7.30;1.47;;;;;;;;;;5071150;28;20457;-53
2022/05/24 14:23:47;;;;;;;1.53;1.37;;;;;;;;;;5073485;28;20439;-54
2022/05/24 14:26:13;;;;;;;3.03;1.70;;;;;;;;;;5076082;28;20822;-55
2022/05/24 14:28:39;;;;;;;3.03;1.47;;;;;;;;;;5069100;28;20468;-53
2022/05/24 14:31:05;;;;;;;6.53;1.63;;;;;;;;;;5054918;28;20881;-53
2022/05/24 14:33:33;;;;;;;2.60;1.50;;;;;;;;;;5060220;28;20766;-57
2022/05/24 14:35:59;;;;;;;1.40;1.30;;;;;;;;;;5075547;28;20412;-56
2022/05/24 14:38:25;;;;;;;3.10;1.40;;;;;;;;;;5071005;28;20391;-57
2022/05/24 14:40:51;;;;;;;4.20;1.47;;;;;;;;;;5054912;28;20507;-57
2022/05/24 14:43:23;;;;;;;1.90;1.40;;;;;;;;;;5057828;28;20819;-56
2022/05/24 14:45:49;;;;;;;2.73;1.40;;;;;;;;;;5075546;28;20857;-56
2022/05/24 14:48:15;;;;;;;4.77;1.27;;;;;;;;;;5072519;28;20477;-55
2022/05/24 14:50:41;;;;;;;2.00;1.27;;;;;;;;;;5055440;28;20403;-52
2022/05/24 14:53:07;;;;;;;2.50;1.40;;;;;;;;;;5055370;28;20784;-52
2022/05/24 14:55:36;;;;;;;2.40;0.97;;;;;;;;;;5075257;28;20829;-52
2022/05/24 14:58:02;;;;;;;1.60;1.50;;;;;;;;;;5074799;28;20496;-55
2022/05/24 15:00:28;;;;;;;1.73;1.30;;;;;;;;;;5055187;28;20462;-55
2022/05/24 15:02:54;;;;;;;2.23;2.13;;;;;;;;;;5057600;28;20866;-56
2022/05/24 15:05:21;;;;;;;6.60;1.50;;;;;;;;;;5073707;28;20557;-54
2022/05/24 15:16:05;;;;;;;2.57;1.50;;;;;;;;;;5073178;28;20490;-54
2022/05/24 15:18:31;;;;;;;1.50;1.40;;;;;;;;;;5074171;28;20903;-56
2022/05/24 15:20:57;;;;;;;2.93;1.50;;;;;;;;;;5073826;28;20404;-55
2022/05/24 15:23:25;;;;;;;2.63;1.47;;;;;;;;;;5068505;28;20415;-54
2022/05/24 15:25:53;;;;;;;1.23;1.13;;;;;;;;;;5058822;28;20466;-54
2022/05/24 15:28:21;;;;;;;3.80;1.30;;;;;;;;;;5074465;28;20404;-53
2022/05/24 15:30:47;;;;;;;1.50;1.40;;;;;;;;;;5070263;28;20385;-56
2022/05/24 15:33:14;;;;;;;5.30;1.60;;;;;;;;;;5056147;28;20421;-56
2022/05/24 15:35:41;;;;;;;2.60;1.50;;;;;;;;;;5064351;28;20448;-55
2022/05/24 15:38:08;;;;;;;1.57;1.47;;;;;;;;;;5074390;28;20416;-55
2022/05/24 15:40:34;;;;;;;3.33;1.30;;;;;;;;;;5072598;28;20400;-54
2022/05/24 15:43:00;;;;;;;3.50;1.70;;;;;;;;;;5053485;28;20491;-55
2022/05/24 15:45:27;;;;;;;1.33;1.23;;;;;;;;;;5054453;28;20468;-56